Newkirk, Iowa
Current Conditions -  °F | °C
As of 2:15 AM on Thursday 29 Jan 2015 (Local Time) from KSHL Reporting Station
Overcast Overcast  
Wind Chill: 22°   Ceiling: 1800
Heat Index: 34°   Visibility: 10mi
Dew Point: 32°   Wind: 22mph
Humidity: 93%   Direction: 330°NNW
Pressure: 30.03"   Gusts: NA
Location:  43.0843°N, 95.9196°W
Report Text: KSHL 290815Z AUTO 33019KT 10SM BKN018 BKN024 OVC028 01/00 A3003 RMK AO2
Loading
Personal Weather Stations






























Interactive Weather Map New forecast layout! Learn more

10-Day Weather Forecast

Advertisements
Track Severe Weather on mobile